createdAt,value
2023-04-23T00:00:19.985Z,11.51
2023-04-23T00:01:19.991Z,11.49
2023-04-23T00:02:20.913Z,11.44
2023-04-23T00:03:19.995Z,11.38
2023-04-23T00:04:19.989Z,11.38
2023-04-23T00:05:19.933Z,11.39
2023-04-23T00:06:19.880Z,11.35
2023-04-23T00:07:19.837Z,11.41
2023-04-23T00:08:19.824Z,11.41
2023-04-23T00:09:20.703Z,11.42
2023-04-23T00:10:19.842Z,11.45
2023-04-23T00:11:19.837Z,11.48
2023-04-23T00:12:19.792Z,11.51
2023-04-23T00:13:19.791Z,11.39
2023-04-23T00:14:19.749Z,11.44
2023-04-23T00:15:19.768Z,11.38
2023-04-23T00:16:19.785Z,11.39
2023-04-23T00:17:19.825Z,11.42
2023-04-23T00:18:19.733Z,11.44
2023-04-23T00:19:19.732Z,11.42
2023-04-23T00:20:19.690Z,11.44
2023-04-23T00:21:19.699Z,11.44
2023-04-23T00:22:19.722Z,11.41
2023-04-23T00:23:19.732Z,11.44
2023-04-23T00:24:19.634Z,11.33
2023-04-23T00:25:19.660Z,11.30
2023-04-23T00:26:19.645Z,11.30
2023-04-23T00:27:19.613Z,11.27
2023-04-23T00:28:22.000Z,11.21
2023-04-23T00:29:19.582Z,11.23
2023-04-23T00:30:19.642Z,11.23
2023-04-23T00:31:19.666Z,11.24
2023-04-23T00:32:19.593Z,11.26
2023-04-23T00:33:19.590Z,11.24
2023-04-23T00:34:19.537Z,11.09
2023-04-23T00:35:19.524Z,11.08
2023-04-23T00:36:19.588Z,11.02
2023-04-23T00:37:19.509Z,11.02
2023-04-23T00:38:19.501Z,11.02
2023-04-23T00:39:19.477Z,11.06
2023-04-23T00:40:19.520Z,11.09
2023-04-23T00:41:19.557Z,11.09
2023-04-23T00:42:19.421Z,11.12
2023-04-23T00:43:19.453Z,11.13
2023-04-23T00:44:19.430Z,11.13
2023-04-23T00:45:19.433Z,11.12
2023-04-23T00:46:19.495Z,11.13
2023-04-23T00:47:19.466Z,11.09
2023-04-23T00:48:19.392Z,11.08
2023-04-23T00:49:19.370Z,11.12
2023-04-23T00:50:19.365Z,11.09
2023-04-23T00:51:19.389Z,11.08
2023-04-23T00:52:19.354Z,11.08
2023-04-23T00:53:19.334Z,11.06
2023-04-23T00:54:19.296Z,11.01
2023-04-23T00:55:19.332Z,11.03
2023-04-23T00:56:19.315Z,11.02
2023-04-23T00:57:19.342Z,11.05
2023-04-23T00:58:19.283Z,11.02
2023-04-23T00:59:19.281Z,10.99
2023-04-23T01:00:19.266Z,11.01
2023-04-23T01:01:19.356Z,11.01
2023-04-23T01:02:19.326Z,11.03
2023-04-23T01:03:19.436Z,10.93
2023-04-23T01:04:19.280Z,10.81
2023-04-23T01:05:19.241Z,10.78
2023-04-23T01:06:19.197Z,10.76
2023-04-23T01:07:19.155Z,10.76
2023-04-23T01:08:19.153Z,10.75
2023-04-23T01:09:19.139Z,10.73
2023-04-23T01:10:19.132Z,10.78
2023-04-23T01:11:19.173Z,10.78
2023-04-23T01:12:19.130Z,10.78
2023-04-23T01:13:19.138Z,10.75
2023-04-23T01:14:19.116Z,10.72
2023-04-23T01:15:19.111Z,10.70
2023-04-23T01:16:19.116Z,10.70
2023-04-23T01:17:19.069Z,10.70
2023-04-23T01:18:19.073Z,10.72
2023-04-23T01:19:19.016Z,10.68
2023-04-23T01:20:19.012Z,10.63
2023-04-23T01:21:19.008Z,10.68
2023-04-23T01:22:18.988Z,10.72
2023-04-23T01:23:18.977Z,10.68
2023-04-23T01:24:18.990Z,10.68
2023-04-23T01:25:18.994Z,10.68
2023-04-23T01:26:18.969Z,10.62
2023-04-23T01:27:18.918Z,10.58
2023-04-23T01:28:18.976Z,10.57
2023-04-23T01:29:18.937Z,10.62
2023-04-23T01:30:18.933Z,10.60
2023-04-23T01:31:18.932Z,10.57
2023-04-23T01:32:18.952Z,10.60
2023-04-23T01:33:18.878Z,10.63
2023-04-23T01:34:18.848Z,10.68
2023-04-23T01:35:18.887Z,10.69
2023-04-23T01:36:18.815Z,10.68
2023-04-23T01:37:18.868Z,10.65
2023-04-23T01:38:18.835Z,10.62
2023-04-23T01:39:18.788Z,10.57
2023-04-23T01:40:18.852Z,10.57
2023-04-23T01:41:18.829Z,10.54
2023-04-23T01:42:18.767Z,10.54
2023-04-23T01:43:18.788Z,10.58
2023-04-23T01:44:18.779Z,10.62
2023-04-23T01:45:18.781Z,10.63
2023-04-23T01:46:18.808Z,10.63
2023-04-23T01:47:18.775Z,10.66
2023-04-23T01:48:18.721Z,10.65
2023-04-23T01:49:18.686Z,10.62
2023-04-23T01:50:18.673Z,10.62
2023-04-23T01:51:18.647Z,10.65
2023-04-23T01:52:18.707Z,10.62
2023-04-23T01:53:18.646Z,10.60
2023-04-23T01:54:18.638Z,10.57
2023-04-23T01:55:18.612Z,10.62
2023-04-23T01:56:18.608Z,10.62
2023-04-23T01:57:18.615Z,10.65
2023-04-23T01:58:18.609Z,10.66
2023-04-23T01:59:18.573Z,10.65
2023-04-23T02:00:18.609Z,10.65
2023-04-23T02:01:18.585Z,10.66
2023-04-23T02:02:18.536Z,10.68
2023-04-23T02:03:18.656Z,10.68
2023-04-23T02:04:18.610Z,10.66
2023-04-23T02:05:18.684Z,10.69
2023-04-23T02:06:18.469Z,10.68
2023-04-23T02:07:18.472Z,10.68
2023-04-23T02:08:18.448Z,10.68
2023-04-23T02:09:18.877Z,10.66
2023-04-23T02:10:18.442Z,10.66
2023-04-23T02:11:18.455Z,10.66
2023-04-23T02:12:18.405Z,10.66
2023-04-23T02:13:18.470Z,10.63
2023-04-23T02:14:18.388Z,10.65
2023-04-23T02:15:18.459Z,10.62
2023-04-23T02:16:18.424Z,10.62
2023-04-23T02:17:18.396Z,10.62
2023-04-23T02:18:18.360Z,10.60
2023-04-23T02:19:18.372Z,10.60
2023-04-23T02:20:18.363Z,10.60
2023-04-23T02:21:18.374Z,10.58
2023-04-23T02:22:18.349Z,10.57
2023-04-23T02:23:18.298Z,10.57
2023-04-23T02:24:18.271Z,10.55
2023-04-23T02:25:18.278Z,10.57
2023-04-23T02:26:18.297Z,10.57
2023-04-23T02:27:18.312Z,10.58
2023-04-23T02:28:18.248Z,10.55
2023-04-23T02:29:18.255Z,10.54
2023-04-23T02:30:18.221Z,10.54
2023-04-23T02:31:18.235Z,10.54
2023-04-23T02:32:18.255Z,10.54
2023-04-23T02:33:18.215Z,10.55
2023-04-23T02:34:18.159Z,10.54
2023-04-23T02:35:18.210Z,10.54
2023-04-23T02:36:18.156Z,10.52
2023-04-23T02:37:18.135Z,10.54
2023-04-23T02:38:18.164Z,10.51
2023-04-23T02:39:18.127Z,10.49
2023-04-23T02:40:18.097Z,10.49
2023-04-23T02:41:18.079Z,10.49
2023-04-23T02:42:18.073Z,10.46
2023-04-23T02:43:18.086Z,10.44
2023-04-23T02:44:18.106Z,10.43
2023-04-23T02:45:18.073Z,10.39
2023-04-23T02:46:18.085Z,10.39
2023-04-23T02:47:18.039Z,10.35
2023-04-23T02:48:18.049Z,10.31
2023-04-23T02:49:17.990Z,10.26
2023-04-23T02:50:18.056Z,10.25
2023-04-23T02:51:18.051Z,10.22
2023-04-23T02:52:17.988Z,10.20
2023-04-23T02:53:18.052Z,10.14
2023-04-23T02:54:17.995Z,10.14
2023-04-23T02:55:17.985Z,10.11
2023-04-23T02:56:17.973Z,10.09
2023-04-23T02:57:18.018Z,10.07
2023-04-23T02:58:17.910Z,10.04
2023-04-23T02:59:17.902Z,10.01
2023-04-23T03:00:17.864Z,9.99
2023-04-23T03:01:18.044Z,9.96
2023-04-23T03:02:17.922Z,9.95
2023-04-23T03:03:18.085Z,9.93
2023-04-23T03:04:17.837Z,9.92
2023-04-23T03:05:17.917Z,9.91
2023-04-23T03:06:17.807Z,9.88
2023-04-23T03:07:17.855Z,9.85
2023-04-23T03:08:17.816Z,9.83
2023-04-23T03:09:17.765Z,9.81
2023-04-23T03:10:17.745Z,9.78
2023-04-23T03:11:17.971Z,9.75
2023-04-23T03:12:17.768Z,9.74
2023-04-23T03:13:17.738Z,9.71
2023-04-23T03:14:17.727Z,9.70
2023-04-23T03:15:17.704Z,9.68
2023-04-23T03:16:17.676Z,9.67
2023-04-23T03:17:17.714Z,9.67
2023-04-23T03:18:17.671Z,9.65
2023-04-23T03:19:17.686Z,9.63
2023-04-23T03:20:17.641Z,9.67
2023-04-23T03:21:17.629Z,9.65
2023-04-23T03:22:17.669Z,9.67
2023-04-23T03:23:17.667Z,9.67
2023-04-23T03:24:17.619Z,9.67
2023-04-23T03:25:17.591Z,9.68
2023-04-23T03:26:17.602Z,9.68
2023-04-23T03:27:17.551Z,9.68
2023-04-23T03:28:17.579Z,9.68
2023-04-23T03:29:17.568Z,9.71
2023-04-23T03:30:17.549Z,9.73
2023-04-23T03:31:17.553Z,9.74
2023-04-23T03:32:17.516Z,9.74
2023-04-23T03:33:17.521Z,9.74
2023-04-23T03:34:17.548Z,9.74
2023-04-23T03:35:17.479Z,9.75
2023-04-23T03:36:17.482Z,9.77
2023-04-23T03:37:17.500Z,9.75
2023-04-23T03:38:17.460Z,9.75
2023-04-23T03:39:17.508Z,9.74
2023-04-23T03:40:17.438Z,9.75
2023-04-23T03:41:17.415Z,9.74
2023-04-23T03:42:17.452Z,9.75
2023-04-23T03:43:17.425Z,9.77
2023-04-23T03:44:17.370Z,9.75
2023-04-23T03:45:17.355Z,9.74
2023-04-23T03:46:17.397Z,9.73
2023-04-23T03:47:17.377Z,9.71
2023-04-23T03:48:17.333Z,9.71
2023-04-23T03:49:17.327Z,9.68
2023-04-23T03:50:17.335Z,9.67
2023-04-23T03:51:17.282Z,9.68
2023-04-23T03:52:17.346Z,9.68
2023-04-23T03:53:17.330Z,9.67
2023-04-23T03:54:17.275Z,9.68
2023-04-23T03:55:17.315Z,9.67
2023-04-23T03:56:17.289Z,9.65
2023-04-23T03:57:17.244Z,9.65
2023-04-23T03:58:17.312Z,9.63
2023-04-23T03:59:17.275Z,9.60
2023-04-23T04:00:17.218Z,9.60
2023-04-23T04:01:17.193Z,9.60
2023-04-23T04:02:17.324Z,9.60
2023-04-23T04:03:17.257Z,9.58
2023-04-23T04:04:17.428Z,9.58
2023-04-23T04:05:17.317Z,9.55
2023-04-23T04:06:17.144Z,9.53
2023-04-23T04:07:17.108Z,9.53
2023-04-23T04:08:17.127Z,9.52
2023-04-23T04:09:17.118Z,9.50
2023-04-23T04:10:17.068Z,9.50
2023-04-23T04:11:17.092Z,9.49
2023-04-23T04:12:17.066Z,9.49
2023-04-23T04:13:17.077Z,9.49
2023-04-23T04:14:17.036Z,9.45
2023-04-23T04:15:17.064Z,9.44
2023-04-23T04:16:17.060Z,9.42
2023-04-23T04:17:17.049Z,9.42
2023-04-23T04:18:17.022Z,9.41
2023-04-23T04:19:16.996Z,9.42
2023-04-23T04:20:16.964Z,9.42
2023-04-23T04:21:16.984Z,9.42
2023-04-23T04:22:16.975Z,9.42
2023-04-23T04:23:17.057Z,9.44
2023-04-23T04:24:16.970Z,9.42
2023-04-23T04:25:16.909Z,9.44
2023-04-23T04:26:16.916Z,9.42
2023-04-23T04:27:16.942Z,9.42
2023-04-23T04:28:16.883Z,9.42
2023-04-23T04:29:16.876Z,9.44
2023-04-23T04:30:17.413Z,9.45
2023-04-23T04:31:16.960Z,9.50
2023-04-23T04:32:16.841Z,9.52
2023-04-23T04:33:16.857Z,9.50
2023-04-23T04:34:16.846Z,9.53
2023-04-23T04:35:16.821Z,9.56
2023-04-23T04:36:16.833Z,9.59
2023-04-23T04:37:16.800Z,9.59
2023-04-23T04:38:16.780Z,9.60
2023-04-23T04:39:16.752Z,9.59
2023-04-23T04:40:16.811Z,9.62
2023-04-23T04:41:16.751Z,9.63
2023-04-23T04:42:16.768Z,9.65
2023-04-23T04:43:16.775Z,9.67
2023-04-23T04:44:16.709Z,9.67
2023-04-23T04:45:16.700Z,9.68
2023-04-23T04:46:16.737Z,9.71
2023-04-23T04:47:16.685Z,9.74
2023-04-23T04:48:16.680Z,9.75
2023-04-23T04:49:16.642Z,9.77
2023-04-23T04:50:16.626Z,9.77
2023-04-23T04:51:16.680Z,9.78
2023-04-23T04:52:16.582Z,9.81
2023-04-23T04:53:16.595Z,9.85
2023-04-23T04:54:16.555Z,9.86
2023-04-23T04:55:16.547Z,9.85
2023-04-23T04:56:16.533Z,9.86
2023-04-23T04:57:16.519Z,9.89
2023-04-23T04:58:16.519Z,9.91
2023-04-23T04:59:16.516Z,9.93
2023-04-23T05:00:16.490Z,9.96
2023-04-23T05:01:16.521Z,9.99
2023-04-23T05:02:16.527Z,10.02
2023-04-23T05:03:16.557Z,10.02
2023-04-23T05:04:16.546Z,10.02
2023-04-23T05:05:16.498Z,9.99
2023-04-23T05:06:16.456Z,9.95
2023-04-23T05:07:16.412Z,9.93
2023-04-23T05:08:16.402Z,9.92
2023-04-23T05:09:16.384Z,9.93
2023-04-23T05:10:16.387Z,9.93
2023-04-23T05:11:16.395Z,9.95
2023-04-23T05:12:16.372Z,9.93
2023-04-23T05:13:16.342Z,9.92
2023-04-23T05:14:16.341Z,9.91
2023-04-23T05:15:16.318Z,9.89
2023-04-23T05:16:16.785Z,9.85
2023-04-23T05:17:16.293Z,9.85
2023-04-23T05:18:16.302Z,9.85
2023-04-23T05:19:16.274Z,9.88
2023-04-23T05:20:16.266Z,9.88
2023-04-23T05:21:16.258Z,9.89
2023-04-23T05:22:16.271Z,9.91
2023-04-23T05:23:16.238Z,9.91
2023-04-23T05:24:16.229Z,9.96
2023-04-23T05:25:16.224Z,10.01
2023-04-23T05:26:16.208Z,10.04
2023-04-23T05:27:16.181Z,10.07
2023-04-23T05:28:16.200Z,10.14
2023-04-23T05:29:16.159Z,10.20
2023-04-23T05:30:16.161Z,10.28
2023-04-23T05:31:16.143Z,10.32
2023-04-23T05:32:16.309Z,10.35
2023-04-23T05:33:16.106Z,10.38
2023-04-23T05:34:16.243Z,10.39
2023-04-23T05:35:16.124Z,10.38
2023-04-23T05:36:16.095Z,10.38
2023-04-23T05:37:16.061Z,10.42
2023-04-23T05:38:16.059Z,10.46
2023-04-23T05:39:16.077Z,10.49
2023-04-23T05:40:16.061Z,10.51
2023-04-23T05:41:16.028Z,10.54
2023-04-23T05:42:16.010Z,10.57
2023-04-23T05:43:15.997Z,10.66
2023-04-23T05:44:15.983Z,10.72
2023-04-23T05:45:16.004Z,10.84
2023-04-23T05:46:15.970Z,10.94
2023-04-23T05:47:15.966Z,11.01
2023-04-23T05:48:15.942Z,11.06
2023-04-23T05:49:15.949Z,11.13
2023-04-23T05:50:15.917Z,11.19
2023-04-23T05:51:15.933Z,11.17
2023-04-23T05:52:15.891Z,11.19
2023-04-23T05:53:15.876Z,11.24
2023-04-23T05:54:15.875Z,11.26
2023-04-23T05:55:15.866Z,11.24
2023-04-23T05:56:15.878Z,11.28
2023-04-23T05:57:15.906Z,11.35
2023-04-23T05:58:15.863Z,11.41
2023-04-23T05:59:15.823Z,11.44
2023-04-23T06:00:15.811Z,11.48
2023-04-23T06:01:15.788Z,11.49
2023-04-23T06:02:15.832Z,11.54
2023-04-23T06:03:15.934Z,11.57
2023-04-23T06:04:16.005Z,11.62
2023-04-23T06:05:16.045Z,11.70
2023-04-23T06:06:15.794Z,11.75
2023-04-23T06:07:15.746Z,11.78
2023-04-23T06:08:15.736Z,11.82
2023-04-23T06:09:15.702Z,11.88
2023-04-23T06:10:15.685Z,11.94
2023-04-23T06:11:15.669Z,11.97
2023-04-23T06:12:15.665Z,11.97
2023-04-23T06:13:15.658Z,11.98
2023-04-23T06:14:15.639Z,12.04
2023-04-23T06:15:15.623Z,12.16
2023-04-23T06:16:15.633Z,12.25
2023-04-23T06:17:15.595Z,12.31
2023-04-23T06:18:15.661Z,12.34
2023-04-23T06:19:15.579Z,12.40
2023-04-23T06:20:15.595Z,12.44
2023-04-23T06:21:15.848Z,12.44
2023-04-23T06:22:15.547Z,12.46
2023-04-23T06:23:15.549Z,12.46
2023-04-23T06:24:15.517Z,12.54
2023-04-23T06:25:15.514Z,12.61
2023-04-23T06:26:15.525Z,12.66
2023-04-23T06:27:15.484Z,12.73
2023-04-23T06:28:15.474Z,12.81
2023-04-23T06:29:15.456Z,12.85
2023-04-23T06:30:15.450Z,12.95
2023-04-23T06:31:15.469Z,12.98
2023-04-23T06:32:15.427Z,13.06
2023-04-23T06:33:15.412Z,13.12
2023-04-23T06:34:15.404Z,13.17
2023-04-23T06:35:15.387Z,13.24
2023-04-23T06:36:15.400Z,13.19
2023-04-23T06:37:15.372Z,13.27
2023-04-23T06:38:15.364Z,13.22
2023-04-23T06:39:15.344Z,13.16
2023-04-23T06:40:15.348Z,13.29
2023-04-23T06:41:15.336Z,13.43
2023-04-23T06:42:15.317Z,13.54
2023-04-23T06:43:15.295Z,13.54
2023-04-23T06:44:15.290Z,13.62
2023-04-23T06:45:15.278Z,13.59
2023-04-23T06:46:15.283Z,13.66
2023-04-23T06:47:15.251Z,13.80
2023-04-23T06:48:15.282Z,13.88
2023-04-23T06:49:15.228Z,14.01
2023-04-23T06:50:15.238Z,14.16
2023-04-23T06:51:15.222Z,14.24
2023-04-23T06:52:15.211Z,14.31
2023-04-23T06:53:15.189Z,14.46
2023-04-23T06:54:15.179Z,14.57
2023-04-23T06:55:15.164Z,14.78
2023-04-23T06:56:15.173Z,14.60
2023-04-23T06:57:15.315Z,14.63
2023-04-23T06:58:16.186Z,14.49
2023-04-23T06:59:15.117Z,14.38
2023-04-23T07:00:15.127Z,14.42
2023-04-23T07:01:15.131Z,14.31
2023-04-23T07:02:15.137Z,14.35
2023-04-23T07:03:15.138Z,14.34
2023-04-23T07:04:15.140Z,14.17
2023-04-23T07:05:15.061Z,14.21
2023-04-23T07:06:15.080Z,14.16
2023-04-23T07:07:15.058Z,14.17
2023-04-23T07:08:15.086Z,13.98
2023-04-23T07:09:15.035Z,13.93
2023-04-23T07:10:17.030Z,13.87
2023-04-23T07:11:15.050Z,13.63
2023-04-23T07:12:15.007Z,13.71
2023-04-23T07:13:15.010Z,13.90
2023-04-23T07:14:15.026Z,14.04
2023-04-23T07:15:14.991Z,14.17
2023-04-23T07:16:15.130Z,14.24
2023-04-23T07:17:14.937Z,14.26
2023-04-23T07:18:14.940Z,14.34
2023-04-23T07:19:14.987Z,14.35
2023-04-23T07:20:14.932Z,14.44
2023-04-23T07:21:14.928Z,14.46
2023-04-23T07:22:14.930Z,14.46
2023-04-23T07:23:14.894Z,14.48
2023-04-23T07:24:14.889Z,14.53
2023-04-23T07:25:14.863Z,14.52
2023-04-23T07:26:14.889Z,14.57
2023-04-23T07:27:14.866Z,14.60
2023-04-23T07:28:14.838Z,14.53
2023-04-23T07:29:14.845Z,14.61
2023-04-23T07:30:14.817Z,14.52
2023-04-23T07:31:14.844Z,14.59
2023-04-23T07:32:14.857Z,14.67
2023-04-23T07:33:14.842Z,14.69
2023-04-23T07:34:14.785Z,14.63
2023-04-23T07:35:14.768Z,14.48
2023-04-23T07:36:14.775Z,14.39
2023-04-23T07:37:14.717Z,14.36
2023-04-23T07:38:14.733Z,14.39
2023-04-23T07:39:14.695Z,14.49
2023-04-23T07:40:14.719Z,14.59
2023-04-23T07:41:14.734Z,14.45
2023-04-23T07:42:14.688Z,14.54
2023-04-23T07:43:14.672Z,14.61
2023-04-23T07:44:14.639Z,14.56
2023-04-23T07:45:14.684Z,14.53
2023-04-23T07:46:14.644Z,14.59
2023-04-23T07:47:14.647Z,14.61
2023-04-23T07:48:14.626Z,14.64
2023-04-23T07:49:14.596Z,14.57
2023-04-23T07:50:14.585Z,14.53
2023-04-23T07:51:14.590Z,14.61
2023-04-23T07:52:14.608Z,14.71
2023-04-23T07:53:14.566Z,14.66
2023-04-23T07:54:14.555Z,14.71
2023-04-23T07:55:14.509Z,14.71
2023-04-23T07:56:14.561Z,14.69
2023-04-23T07:57:14.516Z,14.64
2023-04-23T07:58:15.329Z,14.53
2023-04-23T07:59:14.495Z,14.30
2023-04-23T08:00:14.481Z,14.11
2023-04-23T08:01:14.482Z,14.04
2023-04-23T08:02:14.509Z,13.98
2023-04-23T08:03:14.581Z,14.08
2023-04-23T08:04:14.865Z,14.29
2023-04-23T08:05:14.547Z,14.49
2023-04-23T08:06:14.704Z,14.64
2023-04-23T08:07:14.422Z,14.78
2023-04-23T08:08:14.404Z,14.97
2023-04-23T08:09:14.376Z,15.15
2023-04-23T08:10:14.450Z,15.35
2023-04-23T08:11:14.394Z,15.33
2023-04-23T08:12:14.346Z,15.16
2023-04-23T08:13:14.323Z,15.00
2023-04-23T08:14:14.307Z,15.00
2023-04-23T08:15:14.288Z,14.94
2023-04-23T08:16:14.399Z,15.01
2023-04-23T08:17:14.288Z,14.97
2023-04-23T08:18:14.287Z,15.01
2023-04-23T08:19:15.247Z,15.04
2023-04-23T08:20:14.233Z,14.98
2023-04-23T08:21:14.261Z,15.16
2023-04-23T08:22:14.243Z,15.41
2023-04-23T08:23:14.227Z,15.73
2023-04-23T08:24:14.204Z,15.78
2023-04-23T08:25:14.205Z,15.80
2023-04-23T08:26:14.172Z,15.77
2023-04-23T08:27:14.214Z,15.77
2023-04-23T08:28:14.162Z,15.84
2023-04-23T08:29:14.148Z,15.84
2023-04-23T08:30:14.124Z,15.88
2023-04-23T08:31:25.696Z,15.80
2023-04-23T08:32:14.124Z,15.93
2023-04-23T08:33:14.152Z,16.13
2023-04-23T08:34:14.064Z,16.23
2023-04-23T08:35:14.065Z,16.47
2023-04-23T08:36:14.036Z,16.65
2023-04-23T08:37:27.147Z,16.69
2023-04-23T08:38:14.048Z,16.84
2023-04-23T08:39:14.100Z,16.85
2023-04-23T08:40:14.030Z,16.92
2023-04-23T08:41:14.035Z,16.90
2023-04-23T08:42:13.971Z,17.02
2023-04-23T08:43:13.996Z,17.15
2023-04-23T08:44:14.419Z,17.03
2023-04-23T08:45:13.963Z,16.73
2023-04-23T08:46:13.969Z,16.85
2023-04-23T08:47:13.924Z,17.03
2023-04-23T08:48:13.918Z,17.25
2023-04-23T08:49:13.944Z,17.45
2023-04-23T08:50:13.909Z,17.45
2023-04-23T08:51:13.926Z,17.40
2023-04-23T08:52:13.915Z,17.21
2023-04-23T08:53:13.890Z,17.40
2023-04-23T08:54:13.841Z,17.58
2023-04-23T08:55:13.909Z,17.60
2023-04-23T08:56:13.930Z,17.47
2023-04-23T08:57:13.799Z,17.12
2023-04-23T08:58:13.816Z,17.21
2023-04-23T08:59:13.801Z,17.36
2023-04-23T09:00:13.777Z,17.43
2023-04-23T09:01:13.824Z,17.49
2023-04-23T09:02:13.813Z,17.57
2023-04-23T09:03:14.014Z,17.68
2023-04-23T09:04:13.731Z,17.80
2023-04-23T09:05:13.735Z,17.89
2023-04-23T09:06:13.726Z,17.79
2023-04-23T09:07:13.699Z,17.89
2023-04-23T09:08:13.713Z,17.63
2023-04-23T09:09:13.687Z,17.40
2023-04-23T09:10:15.465Z,17.47
2023-04-23T09:11:13.935Z,17.70
2023-04-23T09:12:13.632Z,17.80
2023-04-23T09:13:13.658Z,18.02
2023-04-23T09:14:13.609Z,18.04
2023-04-23T09:15:13.613Z,18.13
2023-04-23T09:16:13.644Z,18.31
2023-04-23T09:17:13.640Z,18.38
2023-04-23T09:18:13.573Z,18.51
2023-04-23T09:19:13.547Z,18.41
2023-04-23T09:20:13.588Z,18.44
2023-04-23T09:21:13.530Z,18.60
2023-04-23T09:22:13.545Z,18.71
2023-04-23T09:23:13.945Z,18.42
2023-04-23T09:24:13.499Z,18.46
2023-04-23T09:25:13.486Z,18.42
2023-04-23T09:26:13.487Z,18.59
2023-04-23T09:27:13.502Z,18.78
2023-04-23T09:28:13.492Z,18.96
2023-04-23T09:29:13.498Z,18.82
2023-04-23T09:30:13.433Z,18.89
2023-04-23T09:31:13.434Z,18.83
2023-04-23T09:32:13.460Z,18.51
2023-04-23T09:33:13.455Z,18.49
2023-04-23T09:34:13.455Z,18.09
2023-04-23T09:35:13.376Z,17.63
2023-04-23T09:36:13.351Z,17.36
2023-04-23T09:37:13.894Z,17.35
2023-04-23T09:38:13.498Z,17.63
2023-04-23T09:39:13.337Z,17.99
2023-04-23T09:40:13.343Z,18.16
2023-04-23T09:41:13.339Z,17.96
2023-04-23T09:42:13.304Z,18.05
2023-04-23T09:43:13.294Z,18.34
2023-04-23T09:44:13.280Z,18.64
2023-04-23T09:45:13.271Z,18.90
2023-04-23T09:46:13.320Z,18.93
2023-04-23T09:47:13.269Z,18.83
2023-04-23T09:48:13.285Z,18.65
2023-04-23T09:49:13.244Z,18.51
2023-04-23T09:50:13.208Z,18.64
2023-04-23T09:51:13.242Z,18.69
2023-04-23T09:52:13.180Z,18.76
2023-04-23T09:53:13.220Z,18.84
2023-04-23T09:54:13.165Z,18.93
2023-04-23T09:55:13.177Z,19.09
2023-04-23T09:56:13.210Z,19.50
2023-04-23T09:57:13.126Z,19.72
2023-04-23T09:58:13.148Z,19.85
2023-04-23T09:59:13.122Z,19.92
2023-04-23T10:01:13.436Z,20.00
2023-04-23T10:02:13.229Z,20.01
2023-04-23T10:03:13.242Z,20.05
2023-04-23T10:04:13.204Z,20.13
2023-04-23T10:05:22.437Z,19.87
2023-04-23T10:06:25.539Z,19.64
2023-04-23T10:08:13.079Z,19.21
2023-04-23T10:09:13.068Z,18.65
2023-04-23T10:10:13.090Z,18.35
2023-04-23T10:11:20.411Z,18.29
2023-04-23T10:12:31.406Z,18.26
2023-04-23T10:13:12.952Z,18.25
2023-04-23T10:14:12.928Z,18.36
2023-04-23T10:15:12.913Z,18.36
2023-04-23T10:16:22.391Z,18.10
2023-04-23T10:17:12.964Z,18.21
2023-04-23T10:18:12.902Z,18.64
2023-04-23T10:19:13.342Z,19.01
2023-04-23T10:20:12.874Z,19.09
2023-04-23T10:21:12.901Z,19.07
2023-04-23T10:23:12.848Z,18.66
2023-04-23T10:24:12.805Z,18.41
2023-04-23T10:25:12.813Z,18.21
2023-04-23T10:26:12.829Z,18.44
2023-04-23T10:27:24.875Z,18.68
2023-04-23T10:28:12.787Z,18.78
2023-04-23T10:29:12.777Z,18.83
2023-04-23T10:30:12.763Z,18.79
2023-04-23T10:31:12.853Z,18.83
2023-04-23T10:32:12.755Z,18.74
2023-04-23T10:33:22.511Z,18.35
2023-04-23T10:34:12.770Z,18.28
2023-04-23T10:35:12.722Z,18.34
2023-04-23T10:36:12.688Z,18.53
2023-04-23T10:37:12.713Z,18.74
2023-04-23T10:38:12.650Z,18.86
2023-04-23T10:39:12.737Z,18.79
2023-04-23T10:40:12.758Z,18.91
2023-04-23T10:41:12.648Z,18.87
2023-04-23T10:42:12.653Z,18.91
2023-04-23T10:43:12.808Z,18.97
2023-04-23T10:44:12.643Z,18.84
2023-04-23T10:45:22.625Z,19.01
2023-04-23T10:46:12.623Z,18.71
2023-04-23T10:47:12.593Z,18.83
2023-04-23T10:48:12.542Z,18.71
2023-04-23T10:49:12.590Z,18.69
2023-04-23T10:50:12.562Z,18.72
2023-04-23T10:51:56.139Z,18.36
2023-04-23T10:52:22.246Z,18.31
2023-04-23T10:53:12.500Z,18.38
2023-04-23T10:54:12.486Z,18.34
2023-04-23T10:55:12.490Z,18.28
2023-04-23T10:56:12.461Z,18.44
2023-04-23T10:57:12.451Z,18.64
2023-04-23T10:58:12.444Z,18.82
2023-04-23T10:59:12.422Z,18.75
2023-04-23T11:00:12.458Z,18.83
2023-04-23T11:01:12.434Z,18.75
2023-04-23T11:02:12.476Z,18.53
2023-04-23T11:03:12.543Z,18.38
2023-04-23T11:04:12.526Z,18.51
2023-04-23T11:05:12.371Z,18.57
2023-04-23T11:06:12.362Z,18.56
2023-04-23T11:07:12.359Z,18.54
2023-04-23T11:08:19.290Z,18.68
2023-04-23T11:09:12.317Z,18.54
2023-04-23T11:10:12.312Z,18.51
2023-04-23T11:11:12.311Z,18.23
2023-04-23T11:12:12.305Z,18.21
2023-04-23T11:13:12.291Z,18.31
2023-04-23T11:14:12.266Z,18.47
2023-04-23T11:15:12.343Z,18.53
2023-04-23T11:16:12.276Z,18.59
2023-04-23T11:17:12.262Z,18.78
2023-04-23T11:18:12.245Z,19.13
2023-04-23T11:19:12.238Z,19.46
2023-04-23T11:20:12.229Z,19.27
2023-04-23T11:21:12.202Z,19.25
2023-04-23T11:22:12.170Z,19.47
2023-04-23T11:23:12.174Z,19.79
2023-04-23T11:24:12.147Z,20.07
2023-04-23T11:25:12.198Z,20.13
2023-04-23T11:26:12.127Z,20.37
2023-04-23T11:27:12.132Z,20.54
2023-04-23T11:28:12.081Z,20.85
2023-04-23T11:29:12.108Z,21.15
2023-04-23T11:30:12.056Z,21.28
2023-04-23T11:31:12.230Z,21.55
2023-04-23T11:32:12.062Z,21.63
2023-04-23T11:33:12.075Z,21.51
2023-04-23T11:34:12.091Z,21.48
2023-04-23T11:35:13.743Z,21.64
2023-04-23T11:36:12.392Z,21.77
2023-04-23T11:37:12.006Z,21.58
2023-04-23T11:38:11.989Z,21.37
2023-04-23T11:39:11.962Z,21.11
2023-04-23T11:40:12.047Z,21.03
2023-04-23T11:41:11.957Z,20.79
2023-04-23T11:42:11.969Z,20.40
2023-04-23T11:43:11.938Z,20.54
2023-04-23T11:44:11.954Z,20.69
2023-04-23T11:45:11.901Z,20.85
2023-04-23T11:46:11.997Z,20.64
2023-04-23T11:47:11.905Z,20.76
2023-04-23T11:48:11.876Z,20.87
2023-04-23T11:49:11.870Z,21.05
2023-04-23T11:50:11.885Z,21.16
2023-04-23T11:51:11.887Z,21.33
2023-04-23T11:52:11.840Z,20.69
2023-04-23T11:53:11.811Z,20.10
2023-04-23T11:54:11.817Z,19.87
2023-04-23T11:55:11.795Z,20.07
2023-04-23T11:56:11.812Z,20.30
2023-04-23T11:57:11.834Z,20.50
2023-04-23T11:58:11.818Z,20.44
2023-04-23T11:59:11.770Z,20.58
2023-04-23T12:00:11.786Z,20.68
2023-04-23T12:01:11.721Z,20.68
2023-04-23T12:02:11.838Z,20.75
2023-04-23T12:03:11.758Z,20.83
2023-04-23T12:04:12.014Z,20.61
2023-04-23T12:05:11.736Z,20.50
2023-04-23T12:06:11.678Z,20.68
2023-04-23T12:07:25.337Z,20.90
2023-04-23T12:08:11.642Z,20.82
2023-04-23T12:09:11.653Z,20.91
2023-04-23T12:10:11.619Z,20.98
2023-04-23T12:11:11.704Z,21.03
2023-04-23T12:12:11.597Z,21.19
2023-04-23T12:13:11.581Z,21.27
2023-04-23T12:14:11.615Z,21.24
2023-04-23T12:15:11.568Z,21.03
2023-04-23T12:16:11.633Z,20.93
2023-04-23T12:17:11.560Z,21.06
2023-04-23T12:18:11.521Z,20.93
2023-04-23T12:19:13.441Z,20.87
2023-04-23T12:20:11.520Z,20.83
2023-04-23T12:21:11.492Z,20.83
2023-04-23T12:22:11.503Z,20.85
2023-04-23T12:23:11.512Z,20.88
2023-04-23T12:24:11.471Z,20.73
2023-04-23T12:25:11.451Z,20.53
2023-04-23T12:26:11.477Z,20.35
2023-04-23T12:27:11.463Z,20.40
2023-04-23T12:28:11.444Z,20.12
2023-04-23T12:29:11.422Z,20.01
2023-04-23T12:30:11.440Z,20.10
2023-04-23T12:31:11.494Z,20.08
2023-04-23T12:32:11.400Z,20.08
2023-04-23T12:33:11.381Z,20.16
2023-04-23T12:34:11.767Z,20.22
2023-04-23T12:35:11.375Z,20.41
2023-04-23T12:36:11.340Z,20.27
2023-04-23T12:37:11.883Z,20.22
2023-04-23T12:38:11.294Z,20.04
2023-04-23T12:39:11.291Z,19.85
2023-04-23T12:40:11.289Z,19.78
2023-04-23T12:41:11.268Z,19.75
2023-04-23T12:42:11.972Z,19.87
2023-04-23T12:43:11.310Z,20.01
2023-04-23T12:44:11.239Z,19.89
2023-04-23T12:45:11.279Z,19.85
2023-04-23T12:46:11.907Z,20.05
2023-04-23T12:47:11.228Z,20.25
2023-04-23T12:48:11.200Z,20.25
2023-04-23T12:49:11.227Z,20.27
2023-04-23T12:50:11.201Z,20.20
2023-04-23T12:51:11.173Z,20.23
2023-04-23T12:52:13.575Z,20.20
2023-04-23T12:53:11.201Z,20.41
2023-04-23T12:54:11.147Z,20.51
2023-04-23T12:55:11.154Z,20.48
2023-04-23T12:56:11.114Z,20.48
2023-04-23T12:57:11.192Z,19.98
2023-04-23T12:58:11.127Z,19.97
2023-04-23T12:59:11.063Z,20.08
2023-04-23T13:00:11.101Z,20.08